Time;durP1;ratioP1;P1;durP2;ratioP2;P2;SDS_P1;SDS_P2;PMS_P1;PMS_P2;Temp;Humidity;BMP_temperature;BMP_pressure;BME280_temperature;BME280_humidity;BME280_pressure;Samples;Min_cycle;Max_cycle;Signal;HPM_P1;HPM_P2
2022/08/12 00:44:56;;;;;;;5.10;4.60;;;23.80;39.70;;;;;;5041113;28;20181;-84
2022/08/12 00:47:22;;;;;;;6.22;4.78;;;23.50;40.30;;;;;;5041306;28;20185;-83
2022/08/12 00:49:48;;;;;;;5.10;4.70;;;23.10;41.40;;;;;;5039165;28;20745;-83
2022/08/12 00:52:16;;;;;;;4.80;4.50;;;22.90;41.80;;;;;;5039133;28;20193;-84
2022/08/12 00:54:43;;;;;;;4.68;4.38;;;22.90;40.90;;;;;;5038222;28;20274;-84
2022/08/12 00:57:11;;;;;;;5.20;4.22;;;22.90;40.80;;;;;;5045055;28;20193;-83
2022/08/12 00:59:47;;;;;;;4.65;4.35;;;23.00;40.70;;;;;;5035256;28;20263;-83
2022/08/12 01:02:22;;;;;;;4.70;4.30;;;23.20;39.30;;;;;;5036408;28;20184;-85
2022/08/12 01:13:14;;;;;;;4.82;4.43;;;23.30;38.20;;;;;;5034642;28;20196;-83
2022/08/12 01:15:40;;;;;;;5.07;4.38;;;23.30;37.70;;;;;;5036527;28;20185;-85
2022/08/12 01:18:06;;;;;;;4.70;4.40;;;23.10;37.20;;;;;;5038190;28;20217;-84
2022/08/12 01:20:48;;;;;;;4.50;4.10;;;23.00;37.60;;;;;;5034648;28;20187;-84
2022/08/12 01:23:30;;;;;;;4.35;4.13;;;23.00;37.70;;;;;;5037137;28;20185;-84
2022/08/12 01:25:58;;;;;;;4.72;4.28;;;22.90;37.90;;;;;;5044319;28;20199;-83
2022/08/12 01:28:26;;;;;;;5.30;4.18;;;22.70;37.70;;;;;;5035424;28;20232;-84
2022/08/12 01:30:53;;;;;;;5.60;4.13;;;22.60;38.40;;;;;;5041019;28;20193;-85
2022/08/12 01:33:20;;;;;;;4.25;3.95;;;22.60;38.80;;;;;;5038066;28;20185;-83
2022/08/12 01:35:59;;;;;;;4.50;4.10;;;22.50;39.90;;;;;;5038039;28;20819;-83
2022/08/12 01:38:28;;;;;;;4.53;4.20;;;22.50;40.30;;;;;;5034994;28;20424;-85
2022/08/12 01:40:57;;;;;;;4.72;4.43;;;22.40;40.50;;;;;;5037448;28;20201;-84
2022/08/12 01:43:24;;;;;;;7.18;4.50;;;22.50;40.60;;;;;;5041649;28;20193;-84
2022/08/12 01:46:02;;;;;;;5.07;4.68;;;22.30;40.70;;;;;;5042110;28;20194;-83
2022/08/12 01:48:49;;;;;;;4.78;4.32;;;22.20;41.50;;;;;;5037913;28;20215;-84
2022/08/12 01:51:38;;;;;;;4.40;4.00;;;22.10;41.40;;;;;;5032999;28;20738;-85
2022/08/12 01:54:06;;;;;;;5.68;4.20;;;22.10;41.70;;;;;;5035448;28;20592;-84
2022/08/12 01:56:57;;;;;;;4.22;3.92;;;21.80;42.50;;;;;;5040445;28;20213;-85
2022/08/12 02:00:00;;;;;;;4.25;3.92;;;21.70;42.70;;;;;;5036171;28;20245;-84
2022/08/12 02:02:29;;;;;;;7.22;4.47;;;21.50;43.10;;;;;;5029415;28;20223;-85
2022/08/12 02:11:30;;;;;;;6.47;5.00;;;21.30;43.40;;;;;;5027270;28;20242;-83
2022/08/12 02:14:11;;;;;;;4.40;4.10;;;21.20;43.50;;;;;;5039360;28;20191;-84
2022/08/12 02:17:16;;;;;;;4.40;4.10;;;21.20;43.70;;;;;;5035100;28;20195;-84
2022/08/12 02:20:12;;;;;;;4.50;4.10;;;21.20;43.90;;;;;;5040454;28;20279;-84
2022/08/12 02:22:44;;;;;;;4.57;4.18;;;21.10;44.00;;;;;;5031535;28;20190;-83
2022/08/12 02:25:12;;;;;;;5.28;4.65;;;21.10;44.20;;;;;;5041637;28;20192;-84
2022/08/12 02:27:47;;;;;;;4.40;4.10;;;21.10;44.50;;;;;;5036949;28;20562;-85
2022/08/12 02:30:30;;;;;;;4.50;4.10;;;21.10;44.50;;;;;;5032096;28;20289;-84
2022/08/12 02:32:59;;;;;;;4.40;4.00;;;21.10;45.00;;;;;;5037531;28;20221;-84
2022/08/12 02:35:31;;;;;;;4.50;4.00;;;21.20;44.80;;;;;;5038492;28;20262;-84
2022/08/12 02:37:58;;;;;;;4.50;4.10;;;21.20;45.10;;;;;;5041225;28;20236;-85
2022/08/12 02:40:26;;;;;;;4.15;3.85;;;21.10;45.10;;;;;;5035798;28;20198;-84
2022/08/12 02:43:07;;;;;;;4.93;4.53;;;21.10;44.80;;;;;;5036577;28;20184;-84
2022/08/12 02:45:44;;;;;;;4.05;3.75;;;21.00;44.60;;;;;;5038075;28;20195;-83
2022/08/12 02:48:16;;;;;;;4.38;4.07;;;21.00;44.70;;;;;;5030327;28;20377;-85
2022/08/12 02:50:48;;;;;;;4.22;3.90;;;21.00;44.50;;;;;;5039105;28;20263;-83
2022/08/12 02:53:15;;;;;;;4.25;3.95;;;21.00;44.40;;;;;;5037336;28;20193;-84
2022/08/12 02:55:44;;;;;;;4.25;3.90;;;20.80;44.70;;;;;;5044468;28;20805;-84
2022/08/12 02:58:11;;;;;;;4.32;4.03;;;20.80;44.70;;;;;;5036931;28;20236;-84
2022/08/12 03:00:38;;;;;;;3.80;3.60;;;20.70;44.60;;;;;;5034431;28;20182;-84
2022/08/12 03:03:09;;;;;;;4.15;3.75;;;20.80;44.60;;;;;;5037085;28;20274;-84
2022/08/12 03:05:49;;;;;;;4.32;3.90;;;20.80;45.00;;;;;;5032462;28;20178;-84
2022/08/12 03:08:23;;;;;;;4.20;3.90;;;20.80;44.90;;;;;;5035144;28;20181;-84
2022/08/12 03:10:53;;;;;;;4.20;3.90;;;20.70;45.10;;;;;;5045256;28;20177;-83
2022/08/12 03:13:25;;;;;;;4.00;3.63;;;20.70;43.40;;;;;;5051425;28;20181;-82
2022/08/12 03:15:54;;;;;;;7.25;4.28;;;20.70;42.90;;;;;;5053317;28;20220;-84
2022/08/12 03:18:31;;;;;;;4.40;4.00;;;20.80;43.10;;;;;;5041585;28;20213;-83
2022/08/12 03:20:59;;;;;;;3.90;3.70;;;20.90;43.00;;;;;;5035598;28;20189;-84
2022/08/12 03:23:26;;;;;;;4.43;3.58;;;20.90;43.00;;;;;;5038017;28;20197;-84
2022/08/12 03:25:57;;;;;;;4.78;4.07;;;21.00;43.80;;;;;;5042935;28;20195;-83
2022/08/12 03:31:09;;;;;;;4.35;3.80;;;21.00;44.20;;;;;;5036279;28;20214;-85
2022/08/12 03:33:37;;;;;;;4.65;4.25;;;21.20;43.90;;;;;;5043568;28;20767;-85
2022/08/12 03:36:05;;;;;;;4.47;4.07;;;21.20;42.50;;;;;;5041030;28;20268;-84
2022/08/12 03:38:36;;;;;;;5.85;4.22;;;21.20;44.10;;;;;;5041295;28;20219;-84
2022/08/12 04:00:50;;;;;;;5.00;4.53;;;22.00;43.20;;;;;;5043336;28;20239;-85
2022/08/12 04:06:00;;;;;;;4.63;4.22;;;22.00;43.40;;;;;;5043215;28;20184;-83
2022/08/12 04:08:26;;;;;;;5.18;4.07;;;22.00;43.50;;;;;;5043653;28;20205;-83
2022/08/12 04:13:40;;;;;;;4.55;3.97;;;21.90;43.60;;;;;;5043706;28;20172;-84
2022/08/12 04:16:09;;;;;;;5.00;4.43;;;21.90;42.20;;;;;;5043982;28;20197;-84
2022/08/12 04:18:37;;;;;;;5.22;4.20;;;21.80;41.30;;;;;;5045385;28;20232;-85
2022/08/12 04:21:08;;;;;;;4.20;3.90;;;21.70;41.50;;;;;;5039035;28;20638;-85
2022/08/12 04:23:37;;;;;;;4.15;3.85;;;21.50;42.10;;;;;;5044553;28;20197;-83
2022/08/12 04:26:04;;;;;;;5.22;4.13;;;21.30;41.90;;;;;;5042066;28;20190;-83
2022/08/12 04:28:29;;;;;;;7.68;4.05;;;21.00;42.70;;;;;;5039128;28;20233;-83
2022/08/12 04:30:56;;;;;;;4.40;4.00;;;20.90;43.20;;;;;;5036942;28;20186;-84
2022/08/12 04:33:24;;;;;;;4.60;4.20;;;20.80;44.20;;;;;;5039010;28;20555;-84
2022/08/12 04:35:50;;;;;;;4.60;4.20;;;20.90;43.50;;;;;;5037351;28;20260;-84
2022/08/12 04:38:17;;;;;;;4.70;4.22;;;20.80;43.70;;;;;;5041746;28;20232;-83
2022/08/12 04:40:45;;;;;;;4.55;4.18;;;20.70;45.40;;;;;;5045935;28;20212;-84
2022/08/12 04:43:10;;;;;;;4.20;3.80;;;20.50;45.20;;;;;;5039223;28;20201;-84
2022/08/12 04:45:37;;;;;;;4.10;3.80;;;20.30;45.50;;;;;;5041171;28;20236;-85
2022/08/12 04:48:04;;;;;;;4.57;4.00;;;20.30;45.80;;;;;;5035437;28;20207;-84
2022/08/12 04:50:30;;;;;;;4.63;4.22;;;20.40;45.70;;;;;;4998913;28;1116468;-84
2022/08/12 04:52:59;;;;;;;4.60;4.10;;;20.60;45.40;;;;;;5030503;28;20190;-84
2022/08/12 04:55:26;;;;;;;4.47;3.97;;;20.60;45.00;;;;;;5038273;28;20192;-84
2022/08/12 04:57:52;;;;;;;5.70;4.53;;;20.70;45.50;;;;;;5037178;28;20207;-84
2022/08/12 05:00:18;;;;;;;6.18;3.90;;;20.80;45.20;;;;;;5034254;28;20207;-84
2022/08/12 05:02:43;;;;;;;4.00;3.70;;;20.90;44.20;;;;;;5033943;28;20193;-84
2022/08/12 05:05:19;;;;;;;5.43;4.25;;;20.90;44.90;;;;;;5044442;28;20220;-84
2022/08/12 05:07:46;;;;;;;5.65;4.10;;;21.10;44.10;;;;;;5041607;28;20203;-84
2022/08/12 05:10:12;;;;;;;4.60;4.20;;;21.20;44.00;;;;;;5038130;28;20213;-83
2022/08/12 05:12:43;;;;;;;3.97;3.65;;;21.30;43.10;;;;;;5028412;28;20239;-83
2022/08/12 05:15:10;;;;;;;4.30;3.90;;;21.30;43.20;;;;;;5038663;28;20195;-84
2022/08/12 05:17:35;;;;;;;4.15;3.85;;;21.20;42.80;;;;;;5034509;28;20576;-84
2022/08/12 05:20:01;;;;;;;4.65;4.35;;;21.10;43.20;;;;;;5030296;28;20218;-83
2022/08/12 05:22:27;;;;;;;4.20;3.80;;;21.10;43.50;;;;;;5031063;28;20208;-83
2022/08/12 05:24:53;;;;;;;4.00;3.70;;;21.00;43.70;;;;;;5039748;28;20696;-83
2022/08/12 05:27:21;;;;;;;5.18;3.85;;;20.90;43.80;;;;;;5034887;28;20197;-83
2022/08/12 05:29:48;;;;;;;4.00;3.60;;;20.80;43.80;;;;;;5039374;28;20217;-84
2022/08/12 05:32:19;;;;;;;4.50;4.20;;;20.70;44.20;;;;;;5041591;28;20249;-83
2022/08/12 05:34:46;;;;;;;4.22;3.83;;;20.60;44.50;;;;;;5031377;28;20656;-84
2022/08/12 05:37:13;;;;;;;4.63;3.92;;;20.60;44.80;;;;;;5034514;28;20267;-84
2022/08/12 05:39:39;;;;;;;5.47;4.07;;;20.60;45.00;;;;;;5032648;28;20205;-84
2022/08/12 05:42:04;;;;;;;4.40;4.00;;;20.60;45.40;;;;;;5035927;28;20212;-84
2022/08/12 05:44:30;;;;;;;4.38;3.97;;;20.50;45.40;;;;;;5034582;28;20227;-84
2022/08/12 05:46:56;;;;;;;5.47;3.95;;;20.50;45.40;;;;;;5033639;28;20284;-83
2022/08/12 05:49:22;;;;;;;4.20;3.67;;;20.40;46.00;;;;;;5039054;28;20237;-84
2022/08/12 05:51:47;;;;;;;4.60;4.20;;;20.40;46.20;;;;;;5042196;28;20192;-84
2022/08/12 05:54:15;;;;;;;5.47;4.10;;;20.40;46.20;;;;;;5043328;28;20190;-84
2022/08/12 05:56:40;;;;;;;4.97;4.50;;;20.50;46.40;;;;;;5032855;28;20182;-84
2022/08/12 05:59:08;;;;;;;4.30;4.00;;;20.60;46.40;;;;;;5034014;28;20699;-84
2022/08/12 06:01:34;;;;;;;4.80;3.92;;;20.70;45.50;;;;;;5044244;28;20196;-84
2022/08/12 06:04:00;;;;;;;5.28;4.20;;;20.70;45.30;;;;;;5052050;28;20186;-83
2022/08/12 06:06:26;;;;;;;4.65;4.25;;;20.80;44.80;;;;;;5035326;28;20223;-84
2022/08/12 06:08:53;;;;;;;4.63;4.25;;;20.90;44.90;;;;;;5040279;28;20714;-84
2022/08/12 06:11:21;;;;;;;4.60;4.10;;;20.90;44.40;;;;;;5033392;28;20232;-84
2022/08/12 06:13:47;;;;;;;4.53;4.10;;;21.00;44.30;;;;;;5039463;28;20216;-84
2022/08/12 06:16:17;;;;;;;4.43;4.03;;;21.00;44.20;;;;;;5033723;28;20194;-84
2022/08/12 06:18:43;;;;;;;4.38;4.07;;;21.10;44.20;;;;;;5033812;28;20220;-83
2022/08/12 06:21:20;;;;;;;4.85;4.25;;;21.20;43.40;;;;;;5033835;28;20196;-84
2022/08/12 06:23:46;;;;;;;4.95;3.72;;;21.20;43.40;;;;;;5035131;28;20181;-84
2022/08/12 06:26:15;;;;;;;3.67;3.47;;;21.30;43.60;;;;;;5028871;28;20194;-85
2022/08/12 06:28:49;;;;;;;4.55;4.10;;;21.40;43.40;;;;;;5038924;28;20233;-85
2022/08/12 06:31:18;;;;;;;4.20;3.90;;;21.50;43.30;;;;;;5040131;28;20257;-84
2022/08/12 06:33:46;;;;;;;5.88;4.00;;;21.40;43.30;;;;;;5034475;28;20200;-85
2022/08/12 06:36:15;;;;;;;4.25;3.97;;;21.60;42.80;;;;;;5040839;28;20225;-85
2022/08/12 06:38:42;;;;;;;4.68;4.03;;;21.70;42.80;;;;;;5046252;28;20337;-83
2022/08/12 06:43:53;;;;;;;4.65;4.25;;;22.00;42.20;;;;;;5034648;28;20200;-83
2022/08/12 06:46:20;;;;;;;5.45;4.18;;;22.00;42.00;;;;;;5040630;28;20203;-83
2022/08/12 06:48:48;;;;;;;4.00;3.70;;;22.10;41.70;;;;;;5043411;28;20208;-85
2022/08/12 06:51:14;;;;;;;4.43;4.03;;;22.10;41.60;;;;;;5037615;28;20201;-84
2022/08/12 06:53:42;;;;;;;5.07;4.28;;;22.20;41.70;;;;;;5041057;28;20226;-84
2022/08/12 06:56:11;;;;;;;8.45;3.90;;;22.20;41.60;;;;;;5040879;28;20198;-84
2022/08/12 06:58:37;;;;;;;4.55;4.13;;;22.30;41.80;;;;;;5044109;28;20215;-83
2022/08/12 07:01:04;;;;;;;4.20;3.90;;;22.30;41.10;;;;;;5048012;28;20179;-84
2022/08/12 07:03:29;;;;;;;4.70;4.30;;;22.50;40.60;;;;;;5047140;28;20220;-84
2022/08/12 07:05:58;;;;;;;4.55;4.15;;;22.70;40.50;;;;;;5044637;28;20188;-84
2022/08/12 07:08:27;;;;;;;4.32;4.00;;;22.70;40.00;;;;;;5046874;28;20199;-84
2022/08/12 07:10:58;;;;;;;4.32;3.92;;;22.70;39.80;;;;;;5046046;28;20244;-83
2022/08/12 07:13:37;;;;;;;4.30;4.00;;;22.60;40.20;;;;;;5046579;28;20188;-84
2022/08/12 07:16:04;;;;;;;7.10;4.40;;;22.70;40.30;;;;;;5045656;28;20216;-84
2022/08/12 07:18:31;;;;;;;9.32;4.25;;;22.80;39.90;;;;;;5030602;28;20246;-84
2022/08/12 07:21:03;;;;;;;4.00;3.70;;;22.80;40.10;;;;;;5046893;28;20211;-83
2022/08/12 07:23:32;;;;;;;5.53;4.18;;;22.90;40.00;;;;;;5047327;28;20208;-84
2022/08/12 07:25:57;;;;;;;4.18;3.85;;;23.20;39.30;;;;;;5043234;28;20204;-83
2022/08/12 07:28:26;;;;;;;4.82;4.43;;;23.30;39.50;;;;;;5044570;28;20235;-83
2022/08/12 07:30:54;;;;;;;4.85;4.38;;;23.40;39.30;;;;;;5046123;28;20195;-84
2022/08/12 07:33:23;;;;;;;4.57;4.18;;;23.40;39.10;;;;;;5029381;28;20193;-85
2022/08/12 07:35:51;;;;;;;4.40;4.00;;;23.60;39.50;;;;;;5047016;28;20185;-83
2022/08/12 07:38:33;;;;;;;4.70;3.97;;;23.70;38.40;;;;;;5046193;28;20209;-84
2022/08/12 07:41:12;;;;;;;4.32;4.03;;;23.80;38.20;;;;;;5047167;28;20188;-84
2022/08/12 07:43:44;;;;;;;7.93;4.40;;;23.80;38.10;;;;;;5047151;28;20173;-83
2022/08/12 07:46:13;;;;;;;4.22;3.80;;;23.90;37.50;;;;;;5042980;28;20215;-84
2022/08/12 07:48:47;;;;;;;4.43;4.03;;;24.00;37.80;;;;;;5043610;28;20223;-84
2022/08/12 07:51:13;;;;;;;8.23;4.30;;;24.20;37.70;;;;;;5042805;28;20212;-83
2022/08/12 07:53:39;;;;;;;4.60;4.28;;;24.30;37.40;;;;;;5044609;28;20193;-83
2022/08/12 07:56:08;;;;;;;4.55;4.13;;;24.50;36.50;;;;;;5043869;28;20199;-84
2022/08/12 07:58:38;;;;;;;5.13;4.35;;;24.60;36.20;;;;;;5044963;28;20220;-84
2022/08/12 08:01:09;;;;;;;4.22;3.85;;;24.70;36.20;;;;;;5038602;28;20269;-83
2022/08/12 08:04:54;;;;;;;4.28;3.88;;;24.70;36.20;;;;;;5044775;28;20174;-83
2022/08/12 08:06:24;;;;;;;4.60;4.00;;;24.80;36.40;;;;;;5045466;28;20793;-83
2022/08/12 08:08:50;;;;;;;4.55;4.07;;;24.90;35.90;;;;;;5042791;28;20216;-83
2022/08/12 08:14:02;;;;;;;4.78;4.28;;;25.10;35.60;;;;;;5044902;28;20331;-83
2022/08/12 08:16:28;;;;;;;5.00;4.40;;;25.10;35.60;;;;;;5044573;28;20594;-84
2022/08/12 08:18:54;;;;;;;6.07;4.57;;;25.30;35.50;;;;;;5041142;28;20247;-83
2022/08/12 08:21:20;;;;;;;4.88;4.47;;;25.30;35.40;;;;;;5046573;28;20189;-84
2022/08/12 08:26:31;;;;;;;5.30;4.45;;;25.20;35.80;;;;;;5050267;28;20226;-83
2022/08/12 08:28:58;;;;;;;5.32;4.40;;;25.50;34.90;;;;;;5056726;28;20211;-84
2022/08/12 08:31:24;;;;;;;4.53;4.22;;;25.60;35.00;;;;;;5052711;28;20232;-83
2022/08/12 08:33:50;;;;;;;4.40;4.00;;;25.70;34.70;;;;;;5053890;28;20204;-83
2022/08/12 08:36:16;;;;;;;5.18;4.43;;;25.90;34.30;;;;;;5044673;28;20191;-83
2022/08/12 08:38:45;;;;;;;4.45;4.15;;;25.90;34.20;;;;;;5044552;28;20212;-84
2022/08/12 08:43:57;;;;;;;4.53;4.20;;;26.30;33.60;;;;;;5043586;28;20264;-83
2022/08/12 08:46:24;;;;;;;4.65;4.30;;;26.40;33.30;;;;;;5044682;28;20683;-83
2022/08/12 08:48:50;;;;;;;4.78;4.43;;;26.50;32.90;;;;;;5054878;28;20200;-83
2022/08/12 08:51:16;;;;;;;5.15;4.47;;;26.80;32.20;;;;;;5055496;28;20209;-84
2022/08/12 08:53:42;;;;;;;4.80;4.40;;;26.90;32.00;;;;;;5050634;28;20193;-84
2022/08/12 08:56:11;;;;;;;4.85;4.22;;;27.10;30.60;;;;;;5049957;28;20261;-84
2022/08/12 08:58:37;;;;;;;4.30;3.97;;;27.20;30.00;;;;;;5043469;28;20557;-84
2022/08/12 09:01:04;;;;;;;4.60;4.13;;;27.40;29.60;;;;;;5042766;28;20189;-84
2022/08/12 09:03:30;;;;;;;4.38;3.97;;;27.50;29.50;;;;;;5041113;28;20194;-84
2022/08/12 09:05:56;;;;;;;4.32;3.90;;;27.80;29.50;;;;;;5035558;28;20243;-83
2022/08/12 09:08:21;;;;;;;5.47;4.10;;;27.90;29.20;;;;;;5038564;28;20197;-84
2022/08/12 09:10:48;;;;;;;5.22;3.85;;;28.00;29.30;;;;;;5041156;28;20256;-84
2022/08/12 09:13:33;;;;;;;5.40;3.88;;;28.10;29.40;;;;;;5042672;28;20200;-82
2022/08/12 09:16:00;;;;;;;4.40;4.00;;;28.20;29.00;;;;;;5014616;28;20196;-85
2022/08/12 09:18:26;;;;;;;4.57;4.10;;;28.30;28.90;;;;;;5040204;28;20224;-84
2022/08/12 09:20:52;;;;;;;4.38;3.90;;;28.50;28.70;;;;;;5041743;28;20188;-86
2022/08/12 09:23:18;;;;;;;4.47;4.10;;;28.70;28.10;;;;;;5040582;28;20207;-86
2022/08/12 09:25:45;;;;;;;4.25;3.60;;;28.80;27.70;;;;;;5041621;28;20189;-85
2022/08/12 09:28:11;;;;;;;4.15;3.83;;;28.80;27.40;;;;;;5039703;28;20181;-85
2022/08/12 09:30:38;;;;;;;6.43;3.60;;;29.10;27.50;;;;;;5042043;28;20192;-85
2022/08/12 09:33:05;;;;;;;4.22;3.83;;;29.10;27.20;;;;;;5039078;28;20188;-85
2022/08/12 09:35:32;;;;;;;3.72;3.53;;;29.10;26.90;;;;;;5036175;28;20786;-85
2022/08/12 09:38:01;;;;;;;3.63;3.40;;;29.30;26.60;;;;;;5039605;28;20308;-83
2022/08/12 09:40:28;;;;;;;4.15;3.78;;;29.40;26.40;;;;;;5038455;28;20225;-84
2022/08/12 09:45:40;;;;;;;4.03;3.72;;;29.80;26.10;;;;;;5039870;28;20223;-84
2022/08/12 09:48:07;;;;;;;4.72;3.80;;;29.90;25.30;;;;;;5041979;28;20196;-84
2022/08/12 09:50:34;;;;;;;4.40;4.10;;;29.70;25.70;;;;;;5041680;28;20283;-84
2022/08/12 09:53:14;;;;;;;3.67;3.42;;;29.70;25.60;;;;;;5041237;28;20564;-84
2022/08/12 09:55:47;;;;;;;4.20;3.83;;;29.80;25.20;;;;;;5039673;28;20189;-85
2022/08/12 09:58:17;;;;;;;3.83;3.63;;;30.00;25.30;;;;;;5038893;28;20216;-86
2022/08/12 10:00:46;;;;;;;5.60;3.97;;;30.10;25.40;;;;;;5037114;28;20197;-86
2022/08/12 10:03:14;;;;;;;6.50;3.83;;;30.10;25.40;;;;;;5041783;28;20203;-87
2022/08/12 10:05:42;;;;;;;4.32;3.90;;;30.10;24.90;;;;;;5040660;28;20189;-87
2022/08/12 10:08:12;;;;;;;4.13;3.75;;;30.40;24.60;;;;;;5032295;28;20213;-88
2022/08/12 10:13:40;;;;;;;4.28;3.90;;;30.60;24.50;;;;;;5042423;28;20252;-85
2022/08/12 10:16:17;;;;;;;4.10;3.60;;;30.40;24.90;;;;;;5010322;28;20258;-86
2022/08/12 10:18:45;;;;;;;4.72;3.85;;;30.60;24.70;;;;;;5037051;28;20555;-86
2022/08/12 10:21:26;;;;;;;3.95;3.50;;;30.80;24.50;;;;;;5040471;28;20192;-86
2022/08/12 10:23:53;;;;;;;4.22;3.92;;;30.90;23.70;;;;;;5023181;28;20192;-84
2022/08/12 10:31:52;;;;;;;4.40;4.00;;;31.20;23.50;;;;;;5036641;28;20211;-84
2022/08/12 10:34:23;;;;;;;4.40;3.80;;;31.50;23.80;;;;;;5041239;28;20184;-86
2022/08/12 10:36:50;;;;;;;3.90;3.70;;;31.50;23.90;;;;;;5041273;28;20176;-87
2022/08/12 10:39:18;;;;;;;4.25;4.05;;;31.70;23.70;;;;;;5034485;28;20209;-86
2022/08/12 10:44:29;;;;;;;4.25;3.95;;;31.90;23.80;;;;;;5039986;28;20190;-86
2022/08/12 10:46:56;;;;;;;5.90;4.32;;;31.90;23.70;;;;;;5037376;28;20593;-86
2022/08/12 10:49:33;;;;;;;4.60;4.20;;;31.50;24.40;;;;;;5032919;28;20315;-87
2022/08/12 10:52:01;;;;;;;4.47;4.15;;;31.30;24.80;;;;;;5036481;28;20620;-86
2022/08/12 10:54:27;;;;;;;4.10;3.80;;;31.60;23.90;;;;;;5030743;28;20209;-86
2022/08/12 10:56:56;;;;;;;4.45;4.00;;;31.70;23.40;;;;;;5036589;28;20204;-85
2022/08/12 10:59:23;;;;;;;7.18;4.18;;;31.80;23.80;;;;;;5033462;28;20232;-87
2022/08/12 11:01:52;;;;;;;5.72;4.57;;;32.00;24.10;;;;;;5033664;28;20216;-87
2022/08/12 11:04:18;;;;;;;5.57;4.28;;;32.40;23.80;;;;;;5030334;28;20181;-86
2022/08/12 11:06:49;;;;;;;5.03;4.57;;;32.70;22.80;;;;;;5035726;28;20276;-86
2022/08/12 11:09:30;;;;;;;4.57;4.20;;;32.70;22.80;;;;;;5036798;28;20209;-86
2022/08/12 11:11:58;;;;;;;5.45;4.68;;;32.60;23.30;;;;;;5038696;28;20205;-86
2022/08/12 11:14:27;;;;;;;4.65;4.25;;;32.50;23.30;;;;;;5039755;28;20243;-87
2022/08/12 11:17:13;;;;;;;4.93;4.38;;;32.80;23.10;;;;;;5040415;28;20197;-87
2022/08/12 11:19:40;;;;;;;5.10;4.60;;;33.00;23.60;;;;;;5038194;28;20236;-85
2022/08/12 11:22:07;;;;;;;7.03;4.32;;;32.90;23.10;;;;;;5036508;28;20204;-87
2022/08/12 11:24:33;;;;;;;4.70;4.40;;;32.60;24.20;;;;;;5039996;28;20204;-85
2022/08/12 11:27:01;;;;;;;4.68;4.38;;;32.80;23.60;;;;;;5034594;28;20253;-86
2022/08/12 11:29:28;;;;;;;5.03;4.35;;;32.90;23.10;;;;;;5035616;28;20208;-86
2022/08/12 11:31:54;;;;;;;5.35;4.85;;;32.90;23.20;;;;;;5039125;28;20189;-85
2022/08/12 11:34:21;;;;;;;4.90;4.47;;;32.90;22.80;;;;;;5047667;28;20219;-86
2022/08/12 11:36:59;;;;;;;4.60;4.10;;;33.20;22.90;;;;;;5041742;28;20185;-86
2022/08/12 11:39:25;;;;;;;4.57;4.20;;;33.50;22.60;;;;;;5028635;28;20261;-85
2022/08/12 11:41:51;;;;;;;4.40;4.10;;;33.30;22.90;;;;;;5028096;28;20212;-85
2022/08/12 11:44:17;;;;;;;4.82;4.43;;;33.20;23.00;;;;;;5040557;28;20181;-86
2022/08/12 11:46:43;;;;;;;4.40;4.10;;;33.00;23.20;;;;;;5031849;28;20279;-86
2022/08/12 11:49:10;;;;;;;4.20;4.00;;;33.10;23.60;;;;;;5039758;28;20278;-85
2022/08/12 11:51:37;;;;;;;4.82;4.50;;;33.10;23.10;;;;;;5040838;28;20201;-85
2022/08/12 11:54:04;;;;;;;4.25;3.90;;;33.50;22.60;;;;;;5029255;28;20256;-86
2022/08/12 11:56:29;;;;;;;4.50;4.20;;;33.10;23.30;;;;;;5052456;28;20252;-88
2022/08/12 11:58:55;;;;;;;5.65;4.85;;;33.40;22.40;;;;;;5049309;28;20225;-88
2022/08/12 12:01:21;;;;;;;4.82;4.47;;;33.20;22.70;;;;;;5045217;28;20271;-87
2022/08/12 12:03:47;;;;;;;4.22;3.92;;;33.40;22.50;;;;;;5031886;28;20177;-86
2022/08/12 12:06:14;;;;;;;4.80;4.50;;;33.20;22.50;;;;;;5039544;28;20204;-86
2022/08/12 12:08:40;;;;;;;4.45;4.05;;;33.60;22.20;;;;;;5035895;28;20197;-87
2022/08/12 12:11:06;;;;;;;4.68;4.38;;;33.90;22.00;;;;;;5022842;28;20176;-90
2022/08/12 12:13:32;;;;;;;5.00;4.60;;;34.30;21.70;;;;;;5032045;28;20248;-88
2022/08/12 12:15:57;;;;;;;5.07;4.60;;;34.60;20.90;;;;;;5041837;28;20200;-87
2022/08/12 12:18:28;;;;;;;5.00;4.60;;;34.90;20.60;;;;;;5041420;28;20205;-87
2022/08/12 12:20:59;;;;;;;5.35;4.95;;;35.10;21.00;;;;;;5042500;28;20290;-86
2022/08/12 12:23:25;;;;;;;5.18;4.60;;;35.10;21.00;;;;;;5021604;28;20169;-87
2022/08/12 12:25:51;;;;;;;4.63;4.35;;;35.10;21.40;;;;;;5021758;28;20205;-86
2022/08/12 12:28:17;;;;;;;4.88;4.47;;;35.20;20.70;;;;;;5030901;28;20223;-87
2022/08/12 12:30:43;;;;;;;4.90;4.53;;;35.50;20.50;;;;;;5041247;28;20173;-87
2022/08/12 12:33:10;;;;;;;4.95;4.55;;;35.50;20.80;;;;;;5041247;28;20185;-87
2022/08/12 12:35:36;;;;;;;4.97;4.53;;;35.00;21.30;;;;;;5041197;28;20349;-87
2022/08/12 12:38:09;;;;;;;4.65;4.35;;;35.30;20.40;;;;;;5039948;28;20205;-87
2022/08/12 12:40:37;;;;;;;5.97;5.38;;;35.70;20.20;;;;;;5024213;28;20316;-87
2022/08/12 12:43:03;;;;;;;4.57;4.28;;;35.00;21.10;;;;;;5020901;28;20198;-87
2022/08/12 12:45:31;;;;;;;5.07;4.65;;;35.10;20.70;;;;;;5021411;28;20200;-88
2022/08/12 12:48:07;;;;;;;5.47;4.75;;;35.10;20.80;;;;;;5020024;28;20182;-86
2022/08/12 12:50:42;;;;;;;4.85;4.47;;;35.50;20.50;;;;;;5018430;28;20208;-88
2022/08/12 12:53:09;;;;;;;4.65;4.35;;;35.40;20.80;;;;;;5020888;28;20165;-87
2022/08/12 12:55:36;;;;;;;5.40;4.90;;;35.70;20.50;;;;;;5024360;28;20313;-87
2022/08/12 12:58:15;;;;;;;11.93;5.28;;;35.70;19.70;;;;;;5036283;28;20197;-86
2022/08/12 13:00:43;;;;;;;4.95;4.65;;;35.90;20.30;;;;;;5037185;28;20185;-86
2022/08/12 13:03:11;;;;;;;5.10;4.75;;;35.60;20.20;;;;;;5030935;28;20189;-86
2022/08/12 13:05:38;;;;;;;5.72;4.70;;;35.60;19.90;;;;;;5036207;28;20192;-86
2022/08/12 13:08:25;;;;;;;4.85;4.55;;;36.00;19.50;;;;;;5039360;28;20185;-87
2022/08/12 13:10:53;;;;;;;5.47;4.65;;;35.50;19.70;;;;;;5031447;28;20229;-87
2022/08/12 13:13:19;;;;;;;4.90;4.45;;;35.50;19.60;;;;;;5041695;28;20204;-87
2022/08/12 13:15:49;;;;;;;4.45;4.15;;;35.50;19.60;;;;;;5032900;28;20189;-86
2022/08/12 13:18:18;;;;;;;4.80;4.40;;;35.20;20.20;;;;;;5040759;28;20213;-85
2022/08/12 13:20:45;;;;;;;5.03;4.53;;;35.40;20.30;;;;;;5042852;28;20256;-89
2022/08/12 13:23:12;;;;;;;4.47;4.18;;;34.90;20.40;;;;;;5024420;28;20192;-87
2022/08/12 13:25:40;;;;;;;5.13;4.60;;;34.80;20.20;;;;;;5021219;28;20217;-85
2022/08/12 13:28:07;;;;;;;5.65;4.63;;;35.30;20.10;;;;;;5035885;28;20537;-87
2022/08/12 13:30:35;;;;;;;5.93;5.32;;;35.90;19.60;;;;;;5036805;28;20189;-86
2022/08/12 13:33:01;;;;;;;5.35;4.88;;;36.60;19.10;;;;;;5037710;28;20188;-88
2022/08/12 13:35:34;;;;;;;5.40;5.03;;;36.90;19.00;;;;;;5022645;28;20190;-86
2022/08/12 13:38:00;;;;;;;5.53;5.10;;;36.70;18.90;;;;;;5032588;28;20208;-84
2022/08/12 13:40:30;;;;;;;5.40;4.93;;;37.00;19.10;;;;;;5037809;28;20200;-87
2022/08/12 13:42:56;;;;;;;5.32;4.93;;;37.20;19.20;;;;;;5030426;28;20180;-87
2022/08/12 13:45:27;;;;;;;5.05;4.75;;;37.30;18.80;;;;;;5037054;28;20216;-85
2022/08/12 13:48:01;;;;;;;5.30;4.85;;;37.30;18.50;;;;;;5030743;28;20541;-88
2022/08/12 13:50:31;;;;;;;5.30;4.90;;;37.10;18.40;;;;;;5029276;28;20246;-89
2022/08/12 13:53:08;;;;;;;7.13;5.03;;;36.90;18.30;;;;;;5024438;28;20682;-89
2022/08/12 13:55:35;;;;;;;5.28;4.97;;;37.00;18.30;;;;;;5031883;28;20188;-85
2022/08/12 13:58:04;;;;;;;9.13;5.10;;;37.40;18.00;;;;;;5035618;28;20223;-86
2022/08/12 14:00:31;;;;;;;9.85;5.32;;;37.40;18.10;;;;;;5034233;28;20204;-86
2022/08/12 14:02:57;;;;;;;5.20;4.78;;;36.90;18.10;;;;;;5036493;28;20201;-86
2022/08/12 14:05:23;;;;;;;4.90;4.60;;;36.50;18.90;;;;;;5035403;28;20198;-86
2022/08/12 14:07:58;;;;;;;6.22;4.70;;;36.90;18.50;;;;;;5035225;28;20196;-86
2022/08/12 14:10:35;;;;;;;7.18;5.22;;;36.70;18.70;;;;;;5051641;28;20677;-85
2022/08/12 14:13:13;;;;;;;5.20;4.90;;;36.60;18.70;;;;;;5037174;28;20184;-86
2022/08/12 14:15:41;;;;;;;5.50;5.10;;;36.70;18.40;;;;;;5036759;28;20195;-86
2022/08/12 14:18:13;;;;;;;5.30;5.00;;;36.90;18.00;;;;;;5033861;28;20209;-86
2022/08/12 14:20:40;;;;;;;5.82;4.95;;;37.00;18.40;;;;;;5042136;28;20188;-85
2022/08/12 14:23:06;;;;;;;5.80;5.22;;;36.80;18.60;;;;;;5043655;28;20190;-85
2022/08/12 14:25:32;;;;;;;6.38;5.45;;;36.60;18.90;;;;;;5031043;28;20193;-86
2022/08/12 14:28:15;;;;;;;6.10;5.13;;;36.60;18.60;;;;;;5030052;28;20216;-86
2022/08/12 14:31:01;;;;;;;5.30;4.80;;;36.70;18.50;;;;;;5031759;28;20216;-86
2022/08/12 14:33:36;;;;;;;5.15;4.80;;;36.30;18.40;;;;;;5033458;28;20741;-86
2022/08/12 14:36:05;;;;;;;5.25;4.95;;;36.90;18.00;;;;;;5024926;28;20192;-86
2022/08/12 14:38:38;;;;;;;5.22;4.70;;;37.40;17.80;;;;;;5033590;28;20216;-86
2022/08/12 14:41:25;;;;;;;6.32;5.32;;;37.70;17.60;;;;;;5027430;28;20307;-86
2022/08/12 14:43:52;;;;;;;5.50;4.78;;;37.90;17.40;;;;;;5028171;28;20196;-86
2022/08/12 14:46:20;;;;;;;6.15;5.38;;;37.50;17.50;;;;;;5031648;28;20176;-86
2022/08/12 14:48:49;;;;;;;8.82;5.10;;;38.10;17.50;;;;;;5021230;28;20830;-85